sensor_id;sensor_type;location;lat;lon;timestamp;temperature;humidity
63051;SHT30;49136;47.416;19.402;2023-03-04T00:01:00;-2.30;99.99
63051;SHT30;49136;47.416;19.402;2023-03-04T00:03:26;-2.32;99.99
63051;SHT30;49136;47.416;19.402;2023-03-04T00:05:51;-2.28;99.99
63051;SHT30;49136;47.416;19.402;2023-03-04T00:08:16;-2.28;99.99
63051;SHT30;49136;47.416;19.402;2023-03-04T00:10:42;-2.37;99.99
63051;SHT30;49136;47.416;19.402;2023-03-04T00:13:08;-2.50;99.99
63051;SHT30;49136;47.416;19.402;2023-03-04T00:15:33;-2.57;99.99
63051;SHT30;49136;47.416;19.402;2023-03-04T00:17:59;-2.58;99.99
63051;SHT30;49136;47.416;19.402;2023-03-04T00:20:24;-2.65;99.99
63051;SHT30;49136;47.416;19.402;2023-03-04T00:22:49;-2.68;99.99
63051;SHT30;49136;47.416;19.402;2023-03-04T00:25:15;-2.69;99.99
63051;SHT30;49136;47.416;19.402;2023-03-04T00:27:40;-2.56;99.99
63051;SHT30;49136;47.416;19.402;2023-03-04T00:30:06;-2.57;99.99
63051;SHT30;49136;47.416;19.402;2023-03-04T00:32:32;-2.62;99.99
63051;SHT30;49136;47.416;19.402;2023-03-04T00:34:57;-2.67;99.99
63051;SHT30;49136;47.416;19.402;2023-03-04T00:37:23;-2.68;99.99
63051;SHT30;49136;47.416;19.402;2023-03-04T00:39:48;-2.60;99.99
63051;SHT30;49136;47.416;19.402;2023-03-04T00:42:14;-2.71;99.99
63051;SHT30;49136;47.416;19.402;2023-03-04T00:44:39;-2.81;99.99
63051;SHT30;49136;47.416;19.402;2023-03-04T00:47:05;-2.84;99.99
63051;SHT30;49136;47.416;19.402;2023-03-04T00:49:30;-2.75;99.99
63051;SHT30;49136;47.416;19.402;2023-03-04T00:51:56;-2.72;99.99
63051;SHT30;49136;47.416;19.402;2023-03-04T00:54:21;-2.74;99.99
63051;SHT30;49136;47.416;19.402;2023-03-04T00:56:47;-2.75;99.99
63051;SHT30;49136;47.416;19.402;2023-03-04T00:59:12;-2.76;99.99
63051;SHT30;49136;47.416;19.402;2023-03-04T01:01:38;-2.72;99.99
63051;SHT30;49136;47.416;19.402;2023-03-04T01:04:03;-2.82;99.99
63051;SHT30;49136;47.416;19.402;2023-03-04T01:06:29;-2.89;99.99
63051;SHT30;49136;47.416;19.402;2023-03-04T01:08:54;-2.91;99.99
63051;SHT30;49136;47.416;19.402;2023-03-04T01:11:20;-2.97;99.99
63051;SHT30;49136;47.416;19.402;2023-03-04T01:13:45;-2.96;99.99
63051;SHT30;49136;47.416;19.402;2023-03-04T01:16:11;-3.00;99.99
63051;SHT30;49136;47.416;19.402;2023-03-04T01:18:37;-3.10;99.99
63051;SHT30;49136;47.416;19.402;2023-03-04T01:21:03;-2.92;99.99
63051;SHT30;49136;47.416;19.402;2023-03-04T01:23:28;-3.02;99.99
63051;SHT30;49136;47.416;19.402;2023-03-04T01:25:54;-3.10;99.99
63051;SHT30;49136;47.416;19.402;2023-03-04T01:28:19;-3.14;99.99
63051;SHT30;49136;47.416;19.402;2023-03-04T01:30:45;-3.16;99.99
63051;SHT30;49136;47.416;19.402;2023-03-04T01:33:10;-3.19;99.99
63051;SHT30;49136;47.416;19.402;2023-03-04T01:35:36;-3.17;99.99
63051;SHT30;49136;47.416;19.402;2023-03-04T01:38:01;-3.04;99.99
63051;SHT30;49136;47.416;19.402;2023-03-04T01:40:27;-2.99;99.99
63051;SHT30;49136;47.416;19.402;2023-03-04T01:42:52;-3.10;99.99
63051;SHT30;49136;47.416;19.402;2023-03-04T01:45:18;-3.11;99.99
63051;SHT30;49136;47.416;19.402;2023-03-04T01:47:46;-3.19;99.99
63051;SHT30;49136;47.416;19.402;2023-03-04T01:50:35;-3.23;99.99
63051;SHT30;49136;47.416;19.402;2023-03-04T01:53:01;-3.28;99.99
63051;SHT30;49136;47.416;19.402;2023-03-04T01:55:28;-3.33;99.99
63051;SHT30;49136;47.416;19.402;2023-03-04T01:57:54;-3.41;99.99
63051;SHT30;49136;47.416;19.402;2023-03-04T02:02:56;-3.45;99.99
63051;SHT30;49136;47.416;19.402;2023-03-04T02:05:23;-3.44;99.99
63051;SHT30;49136;47.416;19.402;2023-03-04T02:07:51;-3.47;99.99
63051;SHT30;49136;47.416;19.402;2023-03-04T02:10:17;-3.30;99.99
63051;SHT30;49136;47.416;19.402;2023-03-04T02:12:43;-3.19;99.99
63051;SHT30;49136;47.416;19.402;2023-03-04T02:15:09;-3.34;99.99
63051;SHT30;49136;47.416;19.402;2023-03-04T02:17:35;-3.45;99.99
63051;SHT30;49136;47.416;19.402;2023-03-04T02:20:17;-3.54;99.99
63051;SHT30;49136;47.416;19.402;2023-03-04T02:22:54;-3.45;99.99
63051;SHT30;49136;47.416;19.402;2023-03-04T02:25:25;-3.51;99.99
63051;SHT30;49136;47.416;19.402;2023-03-04T02:27:53;-3.48;99.99
63051;SHT30;49136;47.416;19.402;2023-03-04T02:30:20;-3.50;99.99
63051;SHT30;49136;47.416;19.402;2023-03-04T02:32:47;-3.41;99.99
63051;SHT30;49136;47.416;19.402;2023-03-04T02:35:16;-3.51;99.99
63051;SHT30;49136;47.416;19.402;2023-03-04T02:37:42;-3.61;99.99
63051;SHT30;49136;47.416;19.402;2023-03-04T02:40:18;-3.66;99.99
63051;SHT30;49136;47.416;19.402;2023-03-04T02:42:45;-3.63;99.99
63051;SHT30;49136;47.416;19.402;2023-03-04T02:45:34;-3.48;99.99
63051;SHT30;49136;47.416;19.402;2023-03-04T02:48:00;-3.48;99.99
63051;SHT30;49136;47.416;19.402;2023-03-04T02:50:29;-3.68;99.99
63051;SHT30;49136;47.416;19.402;2023-03-04T02:52:55;-3.63;99.99
63051;SHT30;49136;47.416;19.402;2023-03-04T02:55:21;-3.50;99.99
63051;SHT30;49136;47.416;19.402;2023-03-04T02:57:46;-3.59;99.99
63051;SHT30;49136;47.416;19.402;2023-03-04T03:00:12;-3.71;99.99
63051;SHT30;49136;47.416;19.402;2023-03-04T03:02:38;-3.72;99.99
63051;SHT30;49136;47.416;19.402;2023-03-04T03:05:03;-3.66;99.99
63051;SHT30;49136;47.416;19.402;2023-03-04T03:07:29;-3.34;99.99
63051;SHT30;49136;47.416;19.402;2023-03-04T03:09:54;-3.41;99.99
63051;SHT30;49136;47.416;19.402;2023-03-04T03:12:20;-3.50;99.99
63051;SHT30;49136;47.416;19.402;2023-03-04T03:14:45;-3.55;99.99
63051;SHT30;49136;47.416;19.402;2023-03-04T03:17:11;-3.56;99.99
63051;SHT30;49136;47.416;19.402;2023-03-04T03:19:36;-3.61;99.99
63051;SHT30;49136;47.416;19.402;2023-03-04T03:22:02;-3.75;99.99
63051;SHT30;49136;47.416;19.402;2023-03-04T03:24:27;-3.90;99.99
63051;SHT30;49136;47.416;19.402;2023-03-04T03:26:52;-3.89;99.99
63051;SHT30;49136;47.416;19.402;2023-03-04T03:29:18;-3.78;99.99
63051;SHT30;49136;47.416;19.402;2023-03-04T03:31:43;-3.89;99.99
63051;SHT30;49136;47.416;19.402;2023-03-04T03:34:09;-3.79;99.99
63051;SHT30;49136;47.416;19.402;2023-03-04T03:36:34;-3.91;99.99
63051;SHT30;49136;47.416;19.402;2023-03-04T03:39:00;-4.03;99.99
63051;SHT30;49136;47.416;19.402;2023-03-04T03:41:25;-4.17;99.99
63051;SHT30;49136;47.416;19.402;2023-03-04T03:43:50;-4.10;99.99
63051;SHT30;49136;47.416;19.402;2023-03-04T03:46:16;-4.11;99.99
63051;SHT30;49136;47.416;19.402;2023-03-04T03:48:41;-4.21;99.99
63051;SHT30;49136;47.416;19.402;2023-03-04T03:51:07;-4.29;99.99
63051;SHT30;49136;47.416;19.402;2023-03-04T03:53:32;-4.36;99.99
63051;SHT30;49136;47.416;19.402;2023-03-04T03:55:57;-4.38;99.99
63051;SHT30;49136;47.416;19.402;2023-03-04T03:58:23;-4.32;99.99
63051;SHT30;49136;47.416;19.402;2023-03-04T04:00:51;-4.32;99.99
63051;SHT30;49136;47.416;19.402;2023-03-04T04:03:16;-4.28;99.99
63051;SHT30;49136;47.416;19.402;2023-03-04T04:05:42;-4.38;99.99
63051;SHT30;49136;47.416;19.402;2023-03-04T04:08:13;-4.25;99.99
63051;SHT30;49136;47.416;19.402;2023-03-04T04:10:39;-4.38;99.99
63051;SHT30;49136;47.416;19.402;2023-03-04T04:13:05;-4.45;99.99
63051;SHT30;49136;47.416;19.402;2023-03-04T04:15:30;-4.44;99.99
63051;SHT30;49136;47.416;19.402;2023-03-04T04:17:55;-4.56;99.99
63051;SHT30;49136;47.416;19.402;2023-03-04T04:20:21;-4.63;99.99
63051;SHT30;49136;47.416;19.402;2023-03-04T04:22:46;-4.62;99.99
63051;SHT30;49136;47.416;19.402;2023-03-04T04:25:12;-4.56;99.99
63051;SHT30;49136;47.416;19.402;2023-03-04T04:27:37;-4.60;99.99
63051;SHT30;49136;47.416;19.402;2023-03-04T04:30:04;-4.72;99.99
63051;SHT30;49136;47.416;19.402;2023-03-04T04:32:29;-4.69;99.99
63051;SHT30;49136;47.416;19.402;2023-03-04T04:34:55;-4.69;99.99
63051;SHT30;49136;47.416;19.402;2023-03-04T04:37:20;-4.74;99.99
63051;SHT30;49136;47.416;19.402;2023-03-04T04:39:46;-4.70;99.99
63051;SHT30;49136;47.416;19.402;2023-03-04T04:42:11;-4.69;99.99
63051;SHT30;49136;47.416;19.402;2023-03-04T04:44:37;-4.72;99.99
63051;SHT30;49136;47.416;19.402;2023-03-04T04:47:06;-4.83;99.99
63051;SHT30;49136;47.416;19.402;2023-03-04T04:49:32;-4.87;99.99
63051;SHT30;49136;47.416;19.402;2023-03-04T04:51:57;-4.92;99.99
63051;SHT30;49136;47.416;19.402;2023-03-04T04:54:23;-4.92;99.99
63051;SHT30;49136;47.416;19.402;2023-03-04T04:56:49;-5.01;99.99
63051;SHT30;49136;47.416;19.402;2023-03-04T04:59:14;-4.85;99.99
63051;SHT30;49136;47.416;19.402;2023-03-04T05:01:40;-4.94;99.99
63051;SHT30;49136;47.416;19.402;2023-03-04T05:04:05;-5.02;99.99
63051;SHT30;49136;47.416;19.402;2023-03-04T05:06:31;-5.08;99.99
63051;SHT30;49136;47.416;19.402;2023-03-04T05:08:56;-5.11;99.99
63051;SHT30;49136;47.416;19.402;2023-03-04T05:11:22;-5.12;99.99
63051;SHT30;49136;47.416;19.402;2023-03-04T05:13:47;-5.18;99.99
63051;SHT30;49136;47.416;19.402;2023-03-04T05:16:14;-5.20;99.99
63051;SHT30;49136;47.416;19.402;2023-03-04T05:18:40;-5.22;99.99
63051;SHT30;49136;47.416;19.402;2023-03-04T05:21:06;-5.25;99.99
63051;SHT30;49136;47.416;19.402;2023-03-04T05:23:34;-5.22;99.99
63051;SHT30;49136;47.416;19.402;2023-03-04T05:26:01;-5.22;99.99
63051;SHT30;49136;47.416;19.402;2023-03-04T05:28:27;-5.02;99.99
63051;SHT30;49136;47.416;19.402;2023-03-04T05:30:52;-4.91;99.99
63051;SHT30;49136;47.416;19.402;2023-03-04T05:33:18;-4.87;99.99
63051;SHT30;49136;47.416;19.402;2023-03-04T05:35:44;-4.98;99.99
63051;SHT30;49136;47.416;19.402;2023-03-04T05:38:12;-4.97;99.99
63051;SHT30;49136;47.416;19.402;2023-03-04T05:40:39;-4.94;99.99
63051;SHT30;49136;47.416;19.402;2023-03-04T05:43:05;-4.91;99.99
63051;SHT30;49136;47.416;19.402;2023-03-04T05:45:30;-4.88;99.99
63051;SHT30;49136;47.416;19.402;2023-03-04T05:47:56;-4.81;99.99
63051;SHT30;49136;47.416;19.402;2023-03-04T05:50:22;-4.80;99.99
63051;SHT30;49136;47.416;19.402;2023-03-04T05:52:48;-4.77;99.99
63051;SHT30;49136;47.416;19.402;2023-03-04T05:55:14;-4.79;99.99
63051;SHT30;49136;47.416;19.402;2023-03-04T05:57:40;-4.65;99.99
63051;SHT30;49136;47.416;19.402;2023-03-04T06:00:07;-4.57;99.99
63051;SHT30;49136;47.416;19.402;2023-03-04T06:02:36;-4.50;99.99
63051;SHT30;49136;47.416;19.402;2023-03-04T06:05:02;-4.50;99.99
63051;SHT30;49136;47.416;19.402;2023-03-04T06:07:28;-4.48;99.99
63051;SHT30;49136;47.416;19.402;2023-03-04T06:09:53;-4.36;99.99
63051;SHT30;49136;47.416;19.402;2023-03-04T06:12:19;-4.26;99.99
63051;SHT30;49136;47.416;19.402;2023-03-04T06:14:44;-4.10;99.99
63051;SHT30;49136;47.416;19.402;2023-03-04T06:17:10;-3.96;99.99
63051;SHT30;49136;47.416;19.402;2023-03-04T06:19:35;-3.61;99.99
63051;SHT30;49136;47.416;19.402;2023-03-04T06:22:03;-3.62;99.99
63051;SHT30;49136;47.416;19.402;2023-03-04T06:24:29;-3.50;99.99
63051;SHT30;49136;47.416;19.402;2023-03-04T06:26:54;-3.43;99.99
63051;SHT30;49136;47.416;19.402;2023-03-04T06:29:20;-3.37;99.99
63051;SHT30;49136;47.416;19.402;2023-03-04T06:31:45;-3.17;99.99
63051;SHT30;49136;47.416;19.402;2023-03-04T06:34:11;-3.02;99.99
63051;SHT30;49136;47.416;19.402;2023-03-04T06:36:36;-2.91;99.99
63051;SHT30;49136;47.416;19.402;2023-03-04T06:39:06;-2.78;99.99
63051;SHT30;49136;47.416;19.402;2023-03-04T06:41:32;-2.61;99.99
63051;SHT30;49136;47.416;19.402;2023-03-04T06:43:58;-2.34;99.99
63051;SHT30;49136;47.416;19.402;2023-03-04T06:46:24;-2.06;99.99
63051;SHT30;49136;47.416;19.402;2023-03-04T06:48:49;-1.81;99.99
63051;SHT30;49136;47.416;19.402;2023-03-04T06:51:15;-1.45;99.99
63051;SHT30;49136;47.416;19.402;2023-03-04T06:53:41;-1.18;99.99
63051;SHT30;49136;47.416;19.402;2023-03-04T06:56:08;-0.87;98.30
63051;SHT30;49136;47.416;19.402;2023-03-04T06:58:35;-0.51;99.26
63051;SHT30;49136;47.416;19.402;2023-03-04T07:01:17;-0.10;98.53
63051;SHT30;49136;47.416;19.402;2023-03-04T07:03:43;0.31;97.13
63051;SHT30;49136;47.416;19.402;2023-03-04T07:06:10;0.62;94.64
63051;SHT30;49136;47.416;19.402;2023-03-04T07:08:36;0.90;92.75
63051;SHT30;49136;47.416;19.402;2023-03-04T07:11:02;1.12;90.83
63051;SHT30;49136;47.416;19.402;2023-03-04T07:13:27;1.35;90.37
63051;SHT30;49136;47.416;19.402;2023-03-04T07:15:53;1.61;89.37
63051;SHT30;49136;47.416;19.402;2023-03-04T07:18:18;1.82;88.33
63051;SHT30;49136;47.416;19.402;2023-03-04T07:20:44;2.01;87.97
63051;SHT30;49136;47.416;19.402;2023-03-04T07:23:09;2.06;86.70
63051;SHT30;49136;47.416;19.402;2023-03-04T07:25:34;2.30;86.63
63051;SHT30;49136;47.416;19.402;2023-03-04T07:28:00;2.46;86.28
63051;SHT30;49136;47.416;19.402;2023-03-04T07:30:25;2.68;85.93
63051;SHT30;49136;47.416;19.402;2023-03-04T07:32:51;2.92;85.55
63051;SHT30;49136;47.416;19.402;2023-03-04T07:35:16;3.12;85.03
63051;SHT30;49136;47.416;19.402;2023-03-04T07:37:42;3.26;84.21
63051;SHT30;49136;47.416;19.402;2023-03-04T07:40:08;3.61;84.06
63051;SHT30;49136;47.416;19.402;2023-03-04T07:42:34;3.74;82.22
63051;SHT30;49136;47.416;19.402;2023-03-04T07:44:59;3.93;81.50
63051;SHT30;49136;47.416;19.402;2023-03-04T07:47:26;4.13;81.15
63051;SHT30;49136;47.416;19.402;2023-03-04T07:49:52;4.40;81.29
63051;SHT30;49136;47.416;19.402;2023-03-04T07:52:18;4.60;79.58
63051;SHT30;49136;47.416;19.402;2023-03-04T07:54:43;4.79;79.83
63051;SHT30;49136;47.416;19.402;2023-03-04T07:57:09;4.95;79.63
63051;SHT30;49136;47.416;19.402;2023-03-04T07:59:34;5.11;78.79
63051;SHT30;49136;47.416;19.402;2023-03-04T08:02:00;5.19;78.57
63051;SHT30;49136;47.416;19.402;2023-03-04T08:04:25;5.36;78.25
63051;SHT30;49136;47.416;19.402;2023-03-04T08:06:51;5.45;78.07
63051;SHT30;49136;47.416;19.402;2023-03-04T08:09:16;5.56;78.23
63051;SHT30;49136;47.416;19.402;2023-03-04T08:11:42;5.84;78.00
63051;SHT30;49136;47.416;19.402;2023-03-04T08:14:07;6.08;77.50
63051;SHT30;49136;47.416;19.402;2023-03-04T08:16:34;6.15;77.27
63051;SHT30;49136;47.416;19.402;2023-03-04T08:19:02;6.46;76.07
63051;SHT30;49136;47.416;19.402;2023-03-04T08:21:28;6.84;75.95
63051;SHT30;49136;47.416;19.402;2023-03-04T08:23:56;6.99;74.86
63051;SHT30;49136;47.416;19.402;2023-03-04T08:26:26;7.27;74.57
63051;SHT30;49136;47.416;19.402;2023-03-04T08:28:53;7.41;73.53
63051;SHT30;49136;47.416;19.402;2023-03-04T08:31:19;7.44;72.25
63051;SHT30;49136;47.416;19.402;2023-03-04T08:33:45;7.61;71.98
63051;SHT30;49136;47.416;19.402;2023-03-04T08:36:11;7.89;71.52
63051;SHT30;49136;47.416;19.402;2023-03-04T08:38:37;7.97;70.89
63051;SHT30;49136;47.416;19.402;2023-03-04T08:41:03;8.17;70.78
63051;SHT30;49136;47.416;19.402;2023-03-04T08:43:29;8.48;69.85
63051;SHT30;49136;47.416;19.402;2023-03-04T08:45:54;8.73;69.68
63051;SHT30;49136;47.416;19.402;2023-03-04T08:48:21;8.84;68.94
63051;SHT30;49136;47.416;19.402;2023-03-04T08:50:50;9.17;66.58
63051;SHT30;49136;47.416;19.402;2023-03-04T08:53:18;9.45;62.54
63051;SHT30;49136;47.416;19.402;2023-03-04T08:55:44;9.55;61.90
63051;SHT30;49136;47.416;19.402;2023-03-04T08:58:10;9.93;61.25
63051;SHT30;49136;47.416;19.402;2023-03-04T09:00:37;10.14;60.28
63051;SHT30;49136;47.416;19.402;2023-03-04T09:03:03;10.22;58.33
63051;SHT30;49136;47.416;19.402;2023-03-04T09:05:30;10.29;57.15
63051;SHT30;49136;47.416;19.402;2023-03-04T09:07:56;10.39;57.05
63051;SHT30;49136;47.416;19.402;2023-03-04T09:10:21;10.45;56.44
63051;SHT30;49136;47.416;19.402;2023-03-04T09:12:47;10.46;56.55
63051;SHT30;49136;47.416;19.402;2023-03-04T09:15:13;10.64;56.27
63051;SHT30;49136;47.416;19.402;2023-03-04T09:17:39;10.91;56.34
63051;SHT30;49136;47.416;19.402;2023-03-04T09:20:07;10.98;54.95
63051;SHT30;49136;47.416;19.402;2023-03-04T09:22:35;10.97;54.01
63051;SHT30;49136;47.416;19.402;2023-03-04T09:25:00;10.67;54.24
63051;SHT30;49136;47.416;19.402;2023-03-04T09:27:26;11.20;55.19
63051;SHT30;49136;47.416;19.402;2023-03-04T09:29:51;11.32;54.64
63051;SHT30;49136;47.416;19.402;2023-03-04T09:32:17;11.29;54.75
63051;SHT30;49136;47.416;19.402;2023-03-04T09:34:42;11.46;54.76
63051;SHT30;49136;47.416;19.402;2023-03-04T09:37:08;11.44;53.90
63051;SHT30;49136;47.416;19.402;2023-03-04T09:39:33;11.60;53.41
63051;SHT30;49136;47.416;19.402;2023-03-04T09:41:59;11.92;53.17
63051;SHT30;49136;47.416;19.402;2023-03-04T09:44:28;11.89;52.66
63051;SHT30;49136;47.416;19.402;2023-03-04T09:46:58;12.20;53.88
63051;SHT30;49136;47.416;19.402;2023-03-04T09:49:24;11.64;52.83
63051;SHT30;49136;47.416;19.402;2023-03-04T09:52:00;12.20;52.44
63051;SHT30;49136;47.416;19.402;2023-03-04T09:54:39;12.34;51.95
63051;SHT30;49136;47.416;19.402;2023-03-04T10:00:13;12.53;51.51
63051;SHT30;49136;47.416;19.402;2023-03-04T10:05:29;13.09;51.35
63051;SHT30;49136;47.416;19.402;2023-03-04T10:07:58;12.99;51.11
63051;SHT30;49136;47.416;19.402;2023-03-04T10:10:35;12.85;52.42
63051;SHT30;49136;47.416;19.402;2023-03-04T10:13:02;12.97;51.36
63051;SHT30;49136;47.416;19.402;2023-03-04T10:15:45;13.28;50.88
63051;SHT30;49136;47.416;19.402;2023-03-04T10:23:20;12.81;52.20
63051;SHT30;49136;47.416;19.402;2023-03-04T10:25:46;13.00;50.97
63051;SHT30;49136;47.416;19.402;2023-03-04T10:28:17;13.23;50.83
63051;SHT30;49136;47.416;19.402;2023-03-04T10:33:37;13.38;50.13
63051;SHT30;49136;47.416;19.402;2023-03-04T10:36:25;13.37;50.55
63051;SHT30;49136;47.416;19.402;2023-03-04T10:38:58;13.54;49.28
63051;SHT30;49136;47.416;19.402;2023-03-04T10:41:26;13.66;48.91
63051;SHT30;49136;47.416;19.402;2023-03-04T10:46:38;13.72;50.18
63051;SHT30;49136;47.416;19.402;2023-03-04T10:49:04;13.65;49.89
63051;SHT30;49136;47.416;19.402;2023-03-04T10:51:31;13.64;49.36
63051;SHT30;49136;47.416;19.402;2023-03-04T10:54:00;13.69;49.66
63051;SHT30;49136;47.416;19.402;2023-03-04T11:01:54;14.03;49.38
63051;SHT30;49136;47.416;19.402;2023-03-04T11:04:23;13.55;48.57
63051;SHT30;49136;47.416;19.402;2023-03-04T11:06:50;13.62;49.82
63051;SHT30;49136;47.416;19.402;2023-03-04T11:09:43;13.47;50.13
63051;SHT30;49136;47.416;19.402;2023-03-04T11:12:11;13.86;48.52
63051;SHT30;49136;47.416;19.402;2023-03-04T11:14:48;13.65;50.38
63051;SHT30;49136;47.416;19.402;2023-03-04T11:17:20;13.68;50.17
63051;SHT30;49136;47.416;19.402;2023-03-04T11:19:52;13.75;49.91
63051;SHT30;49136;47.416;19.402;2023-03-04T11:22:20;14.06;48.04
63051;SHT30;49136;47.416;19.402;2023-03-04T11:24:54;13.87;48.39
63051;SHT30;49136;47.416;19.402;2023-03-04T11:27:33;13.75;48.67
63051;SHT30;49136;47.416;19.402;2023-03-04T11:30:18;13.89;49.98
63051;SHT30;49136;47.416;19.402;2023-03-04T11:32:48;14.03;48.43
63051;SHT30;49136;47.416;19.402;2023-03-04T11:35:30;13.66;46.25
63051;SHT30;49136;47.416;19.402;2023-03-04T11:38:05;13.47;48.80
63051;SHT30;49136;47.416;19.402;2023-03-04T11:40:40;13.31;47.19
63051;SHT30;49136;47.416;19.402;2023-03-04T11:43:16;13.68;48.66
63051;SHT30;49136;47.416;19.402;2023-03-04T11:49:05;13.85;47.48
63051;SHT30;49136;47.416;19.402;2023-03-04T11:51:39;13.89;47.94
63051;SHT30;49136;47.416;19.402;2023-03-04T11:54:39;13.91;48.86
63051;SHT30;49136;47.416;19.402;2023-03-04T12:12:04;13.83;47.06
63051;SHT30;49136;47.416;19.402;2023-03-04T12:14:24;13.72;46.47
63051;SHT30;49136;47.416;19.402;2023-03-04T12:17:16;13.82;46.29
63051;SHT30;49136;47.416;19.402;2023-03-04T12:35:46;14.02;46.41
63051;SHT30;49136;47.416;19.402;2023-03-04T12:41:24;13.91;47.01
63051;SHT30;49136;47.416;19.402;2023-03-04T12:55:08;13.54;47.49
63051;SHT30;49136;47.416;19.402;2023-03-04T12:57:35;13.78;47.72
63051;SHT30;49136;47.416;19.402;2023-03-04T13:08:23;12.99;48.92
63051;SHT30;49136;47.416;19.402;2023-03-04T13:10:51;13.33;49.75
63051;SHT30;49136;47.416;19.402;2023-03-04T13:13:40;13.13;49.63
63051;SHT30;49136;47.416;19.402;2023-03-04T13:18:43;13.68;48.74
63051;SHT30;49136;47.416;19.402;2023-03-04T13:23:48;13.47;49.02
63051;SHT30;49136;47.416;19.402;2023-03-04T13:26:21;13.04;48.57
63051;SHT30;49136;47.416;19.402;2023-03-04T13:28:52;13.48;48.73
63051;SHT30;49136;47.416;19.402;2023-03-04T13:31:21;13.40;46.87
63051;SHT30;49136;47.416;19.402;2023-03-04T13:33:54;13.20;47.09
63051;SHT30;49136;47.416;19.402;2023-03-04T13:36:30;13.24;48.20
63051;SHT30;49136;47.416;19.402;2023-03-04T13:39:20;13.26;47.36
63051;SHT30;49136;47.416;19.402;2023-03-04T13:41:51;12.92;47.21
63051;SHT30;49136;47.416;19.402;2023-03-04T13:47:16;13.33;48.28
63051;SHT30;49136;47.416;19.402;2023-03-04T13:49:42;13.41;47.48
63051;SHT30;49136;47.416;19.402;2023-03-04T13:52:37;13.24;48.53
63051;SHT30;49136;47.416;19.402;2023-03-04T13:57:56;13.38;47.47
63051;SHT30;49136;47.416;19.402;2023-03-04T14:00:23;13.27;48.57
63051;SHT30;49136;47.416;19.402;2023-03-04T14:02:49;13.34;47.98
63051;SHT30;49136;47.416;19.402;2023-03-04T14:05:15;13.40;48.68
63051;SHT30;49136;47.416;19.402;2023-03-04T14:07:40;13.43;49.52
63051;SHT30;49136;47.416;19.402;2023-03-04T14:10:28;13.38;49.39
63051;SHT30;49136;47.416;19.402;2023-03-04T14:12:55;13.31;49.34
63051;SHT30;49136;47.416;19.402;2023-03-04T14:15:24;13.33;49.12
63051;SHT30;49136;47.416;19.402;2023-03-04T14:18:01;13.24;49.83
63051;SHT30;49136;47.416;19.402;2023-03-04T14:20:36;13.14;49.85
63051;SHT30;49136;47.416;19.402;2023-03-04T14:23:05;13.23;49.34
63051;SHT30;49136;47.416;19.402;2023-03-04T14:25:46;13.06;50.08
63051;SHT30;49136;47.416;19.402;2023-03-04T14:28:17;12.91;48.18
63051;SHT30;49136;47.416;19.402;2023-03-04T14:30:54;13.04;47.92
63051;SHT30;49136;47.416;19.402;2023-03-04T14:33:26;12.84;47.13
63051;SHT30;49136;47.416;19.402;2023-03-04T14:35:59;12.84;46.97
63051;SHT30;49136;47.416;19.402;2023-03-04T14:38:29;12.72;46.16
63051;SHT30;49136;47.416;19.402;2023-03-04T14:41:08;12.77;46.39
63051;SHT30;49136;47.416;19.402;2023-03-04T14:43:42;12.64;46.73
63051;SHT30;49136;47.416;19.402;2023-03-04T14:46:12;12.65;46.47
63051;SHT30;49136;47.416;19.402;2023-03-04T14:48:40;12.53;45.71
63051;SHT30;49136;47.416;19.402;2023-03-04T14:51:30;12.25;44.67
63051;SHT30;49136;47.416;19.402;2023-03-04T14:53:56;12.26;45.13
63051;SHT30;49136;47.416;19.402;2023-03-04T14:56:26;12.13;45.02
63051;SHT30;49136;47.416;19.402;2023-03-04T14:58:55;12.13;45.40
63051;SHT30;49136;47.416;19.402;2023-03-04T15:01:33;11.99;46.25
63051;SHT30;49136;47.416;19.402;2023-03-04T15:04:08;11.96;46.55
63051;SHT30;49136;47.416;19.402;2023-03-04T15:06:47;11.79;46.72
63051;SHT30;49136;47.416;19.402;2023-03-04T15:11:48;11.44;47.46
63051;SHT30;49136;47.416;19.402;2023-03-04T15:17:28;11.23;47.86
63051;SHT30;49136;47.416;19.402;2023-03-04T15:20:23;11.08;46.45
63051;SHT30;49136;47.416;19.402;2023-03-04T15:25:18;10.81;47.95
63051;SHT30;49136;47.416;19.402;2023-03-04T15:27:45;10.75;47.59
63051;SHT30;49136;47.416;19.402;2023-03-04T15:30:26;10.67;48.57
63051;SHT30;49136;47.416;19.402;2023-03-04T15:32:53;10.66;49.52
63051;SHT30;49136;47.416;19.402;2023-03-04T15:35:20;10.52;49.61
63051;SHT30;49136;47.416;19.402;2023-03-04T15:37:47;10.42;50.29
63051;SHT30;49136;47.416;19.402;2023-03-04T15:40:20;10.25;49.40
63051;SHT30;49136;47.416;19.402;2023-03-04T15:42:47;10.22;51.45
63051;SHT30;49136;47.416;19.402;2023-03-04T15:45:22;10.12;50.43
63051;SHT30;49136;47.416;19.402;2023-03-04T15:47:48;9.99;51.52
63051;SHT30;49136;47.416;19.402;2023-03-04T15:50:15;9.76;52.25
63051;SHT30;49136;47.416;19.402;2023-03-04T15:52:41;9.56;52.57
63051;SHT30;49136;47.416;19.402;2023-03-04T15:55:13;9.32;53.61
63051;SHT30;49136;47.416;19.402;2023-03-04T15:57:38;9.38;52.82
63051;SHT30;49136;47.416;19.402;2023-03-04T16:00:04;9.43;51.13
63051;SHT30;49136;47.416;19.402;2023-03-04T16:02:30;9.27;51.51
63051;SHT30;49136;47.416;19.402;2023-03-04T16:04:56;9.22;50.84
63051;SHT30;49136;47.416;19.402;2023-03-04T16:07:24;9.10;51.10
63051;SHT30;49136;47.416;19.402;2023-03-04T16:09:57;8.93;51.40
63051;SHT30;49136;47.416;19.402;2023-03-04T16:12:25;8.91;51.09
63051;SHT30;49136;47.416;19.402;2023-03-04T16:14:51;8.73;51.94
63051;SHT30;49136;47.416;19.402;2023-03-04T16:17:18;8.52;51.74
63051;SHT30;49136;47.416;19.402;2023-03-04T16:19:44;8.34;53.14
63051;SHT30;49136;47.416;19.402;2023-03-04T16:22:19;8.16;53.28
63051;SHT30;49136;47.416;19.402;2023-03-04T16:24:49;7.87;55.08
63051;SHT30;49136;47.416;19.402;2023-03-04T16:27:16;7.61;56.46
63051;SHT30;49136;47.416;19.402;2023-03-04T16:29:42;7.38;56.77
63051;SHT30;49136;47.416;19.402;2023-03-04T16:32:09;7.19;59.02
63051;SHT30;49136;47.416;19.402;2023-03-04T16:34:35;7.17;59.23
63051;SHT30;49136;47.416;19.402;2023-03-04T16:37:05;7.13;58.92
63051;SHT30;49136;47.416;19.402;2023-03-04T16:39:32;7.03;58.35
63051;SHT30;49136;47.416;19.402;2023-03-04T16:41:58;6.87;58.87
63051;SHT30;49136;47.416;19.402;2023-03-04T16:44:24;6.84;57.94
63051;SHT30;49136;47.416;19.402;2023-03-04T16:46:50;6.71;58.41
63051;SHT30;49136;47.416;19.402;2023-03-04T16:49:15;6.63;58.32
63051;SHT30;49136;47.416;19.402;2023-03-04T16:51:45;6.43;59.13
63051;SHT30;49136;47.416;19.402;2023-03-04T16:54:15;6.33;59.57
63051;SHT30;49136;47.416;19.402;2023-03-04T16:56:41;6.43;58.68
63051;SHT30;49136;47.416;19.402;2023-03-04T16:59:12;6.39;59.22
63051;SHT30;49136;47.416;19.402;2023-03-04T17:01:39;6.49;58.88
63051;SHT30;49136;47.416;19.402;2023-03-04T17:04:05;6.36;59.84
63051;SHT30;49136;47.416;19.402;2023-03-04T17:06:30;6.16;60.10